KABI/ABI METAR and TAF weather

Enter ICAO airport designator
Station Type Date Time Source
KABI METAR 2018/01/19 16:52 UTC NOAA

KABI 191652Z 20015KT 10SM CLR 08/M02 A3012 RMK AO2 PK WND 20026/1624 SLP201 T00831022


Station Type Date Time Source
KABI Decoded METAR 2018/01/19 16:52 UTC NOAA

ABILENE REGIONAL AIRPORT, TX, United States (KABI) 32-25N 099-41W 548M
Jan 19, 2018 - 11:52 AM EST / 2018.01.19 1652 UTC
Wind: from the SSW (200 degrees) at 17 MPH (15 KT):0
Visibility: 10 mile(s):0
Sky conditions: clear
Temperature: 46.9 F (8.3 C)
Dew Point: 28.0 F (-2.2 C)
Relative Humidity: 47%
Pressure (altimeter): 30.12 in. Hg (1019 hPa)
ob: KABI 191652Z 20015KT 10SM CLR 08/M02 A3012 RMK AO2 PK WND 20026/1624 SLP201 T00831022
cycle: 17

Station Type Date Time Source
KABI TAF 2018/01/19 12:24 UTC NOAA

TAF KABI 191123Z 1912/2012 19010KT P6SM SKC
FM191600 20014G22KT P6SM SCT250


Example: see airport list